Latest Weather Observations for Westmere

IDV60801

Issued at 3:02 pm EST Tuesday 28 April 2015 (issued every 30 minutes, with the page automatically refreshed every 10 minutes)

About weather observations | Map of weather stations | Latest weather observations for VIC | Other Formats
Station Details ID: 089112 Name: WESTMERE Lat: -37.71 Lon: 142.94 Height: 226.0 m
Data from the previous 72 hours. | See also: Recent months at Westmere
Date/Time
EST
Temp
°C
App
Temp
°C
Dew
Point
Rel
Hum
%
Delta-T
°C
Wind Press
QNH
hPa
Press
MSL
hPa
Rain
since 9 am
mm
Dir
 
Spd
km/h
Gust
km/h
Spd
kts
Gust
kts
28/03:00pm 12.9 10.7 8.0 72 2.4 S 9 13 5 7 1028.7 1028.6 0.0
28/02:30pm 12.0 9.0 9.2 83 1.4 S 15 20 8 11 1028.8 1028.7 0.0
28/02:00pm 12.6 9.0 8.5 76 2.0 SSE 17 22 9 12 1028.9 1028.8 0.0
28/01:30pm 12.7 10.0 9.0 78 1.9 S 13 17 7 9 1029.2 1029.1 0.0
28/01:00pm 12.6 10.7 9.1 79 1.8 SSE 9 13 5 7 1029.4 1029.3 0.0
28/12:30pm 12.4 10.2 9.2 81 1.6 SSE 11 17 6 9 1029.8 1029.7 0.0
28/12:00pm 12.1 9.0 8.9 81 1.6 SSE 15 20 8 11 1030.0 1029.9 0.0
28/11:30am 12.3 9.4 8.0 75 2.1 S 13 17 7 9 1030.1 1030.0 0.0
28/11:00am 11.4 8.3 9.0 85 1.2 S 15 19 8 10 1030.2 1030.1 0.0
28/10:30am 10.7 8.8 9.1 90 0.8 S 9 15 5 8 1030.1 1030.0 0.0
28/10:00am 9.9 8.8 9.9 100 0.0 SSW 6 9 3 5 1030.1 1030.0 0.0
28/09:30am 9.5 8.1 9.5 100 0.0 SW 7 9 4 5 1030.0 1029.9 0.0
28/09:00am 8.5 6.8 8.5 100 0.0 W 7 9 4 5 1029.9 1029.8 0.6
28/08:30am 7.5 5.8 7.5 100 0.0 W 6 7 3 4 1029.7 1029.6 0.6
28/08:00am 6.3 4.7 6.2 99 0.0 WSW 4 4 2 2 1029.4 1029.3 0.6
28/07:30am 5.9 4.6 5.8 99 0.0 WSW 2 4 1 2 1029.0 1028.9 0.6
28/07:00am 6.7 4.8 6.6 99 0.0 SW 6 7 3 4 1028.8 1028.7 0.6
28/06:30am 7.3 4.9 7.2 99 0.0 SSW 9 13 5 7 1028.6 1028.5 0.6
28/06:00am 7.2 4.4 7.1 99 0.0 WSW 11 13 6 7 1028.1 1028.0 0.6
28/05:30am 7.6 5.7 7.5 99 0.0 SW 7 9 4 5 1028.0 1027.9 0.6
28/05:00am 7.3 5.5 7.2 99 0.0 WSW 6 7 3 4 1027.7 1027.6 0.6
28/04:30am 7.2 5.4 7.1 99 0.0 WSW 6 7 3 4 1027.5 1027.4 0.6
28/04:00am 6.9 5.0 6.8 99 0.0 WSW 6 7 3 4 1027.3 1027.2 0.6
28/03:30am 7.5 5.8 7.4 99 0.0 W 6 7 3 4 1027.2 1027.1 0.6
28/03:00am 8.1 6.3 8.0 99 0.0 SW 7 9 4 5 1027.3 1027.2 0.4
28/02:30am 7.9 6.6 7.8 99 0.0 WSW 4 6 2 3 1027.2 1027.1 0.0
28/02:00am 7.0 5.1 6.9 99 0.0 WSW 6 7 3 4 1027.2 1027.1 0.0
28/01:30am 7.3 5.5 7.2 99 0.0 WSW 6 7 3 4 1027.1 1027.0 0.0
28/01:00am 7.9 6.1 7.8 99 0.0 WSW 7 9 4 5 1027.2 1027.1 0.0
28/12:30am 8.6 6.9 8.5 99 0.0 SW 7 11 4 6 1027.3 1027.2 0.0
28/12:00am 8.9 6.9 8.8 99 0.0 SW 9 11 5 6 1027.3 1027.2 0.0
 
Date/Time
EST
Temp
°C
App
Temp
°C
Dew
Point
Rel
Hum
%
Delta-T
°C
Wind Press
QNH
hPa
Press
MSL
hPa
Rain
since 9 am
mm
Dir
 
Spd
km/h
Gust
km/h
Spd
kts
Gust
kts
27/11:30pm 8.9 7.2 8.3 96 0.3 SW 7 9 4 5 1027.4 1027.3 0.0
27/11:00pm 8.9 7.2 8.3 96 0.3 SW 7 11 4 6 1027.4 1027.3 0.0
27/10:30pm 9.3 7.8 8.4 94 0.4 SSW 6 7 3 4 1027.2 1027.1 0.0
27/10:00pm 9.4 7.8 8.6 95 0.4 SSW 7 9 4 5 1027.1 1027.0 0.0
27/09:30pm 9.5 7.6 8.9 96 0.3 SW 9 13 5 7 1026.9 1026.8 0.0
27/09:00pm 9.5 8.0 8.4 93 0.5 SW 6 7 3 4 1026.6 1026.5 0.0
27/08:30pm 10.0 7.6 8.6 91 0.7 SW 11 15 6 8 1026.4 1026.2 0.0
27/08:00pm 10.1 8.1 8.7 91 0.7 SW 9 13 5 7 1026.2 1026.1 0.0
27/07:30pm 10.3 8.7 8.9 91 0.7 SSW 7 11 4 6 1026.1 1026.0 0.0
27/07:00pm 10.6 8.2 8.7 88 0.9 SSW 11 15 6 8 1025.8 1025.7 0.0
27/06:30pm 10.7 8.3 8.6 87 1.0 SSW 11 15 6 8 1025.5 1025.4 0.0
27/06:00pm 10.9 8.5 8.5 85 1.2 SW 11 17 6 9 1025.2 1025.1 0.0
27/05:30pm 11.3 8.2 8.9 85 1.2 SW 15 20 8 11 1025.1 1025.0 0.0
27/05:00pm 11.2 6.8 8.9 86 1.1 SSW 22 28 12 15 1024.9 1024.8 0.0
27/04:30pm 12.8 8.7 7.9 72 2.4 SW 19 26 10 14 1024.5 1024.4 0.0
27/04:00pm 13.1 8.8 8.0 71 2.5 SW 20 32 11 17 1024.4 1024.3 0.0
27/03:30pm 13.9 8.7 8.7 71 2.7 SSW 26 32 14 17 1024.1 1024.0 0.0
27/03:00pm 13.4 9.6 8.9 74 2.3 SW 19 33 10 18 1024.0 1023.9 0.0
27/02:30pm 12.8 8.9 9.4 80 1.7 SSW 20 28 11 15 1023.9 1023.8 0.0
27/02:00pm 13.3 9.8 8.6 73 2.4 SSW 17 26 9 14 1023.7 1023.6 0.0
27/01:30pm 13.2 8.5 9.1 76 2.1 SSW 24 32 13 17 1023.8 1023.7 0.0
27/01:00pm 13.3 10.4 9.5 78 2.0 SW 15 22 8 12 1023.9 1023.8 0.0
27/12:30pm 12.7 9.7 10.6 87 1.1 WSW 17 24 9 13 1024.2 1024.1 0.0
27/12:00pm 12.1 8.3 9.8 86 1.2 SSW 20 26 11 14 1024.5 1024.4 0.0
27/11:30am 12.7 9.0 9.3 80 1.7 SW 19 28 10 15 1024.6 1024.5 0.0
27/11:00am 11.6 8.0 10.0 90 0.8 WSW 19 26 10 14 1024.7 1024.6 0.0
27/10:30am 11.4 7.9 10.1 92 0.7 SW 19 22 10 12 1024.5 1024.4 0.0
27/10:00am 10.4 6.7 9.5 94 0.5 SW 19 26 10 14 1024.6 1024.5 0.0
27/09:30am 10.0 7.1 9.5 97 0.3 WSW 15 22 8 12 1024.5 1024.4 0.0
27/09:00am 9.5 6.9 9.4 99 0.0 WSW 13 19 7 10 1024.4 1024.3 1.4
27/08:30am 9.3 6.7 9.2 99 0.0 WSW 13 17 7 9 1024.2 1024.1 1.2
27/08:00am 9.0 6.7 8.9 99 0.0 WSW 11 15 6 8 1024.1 1024.0 1.2
27/07:30am 8.8 6.8 8.7 99 0.0 W 9 15 5 8 1023.8 1023.7 1.2
27/07:00am 8.8 6.8 8.7 99 0.0 W 9 15 5 8 1023.5 1023.4 1.2
27/06:30am 8.6 6.6 8.5 99 0.0 W 9 15 5 8 1023.2 1023.1 1.0
27/06:00am 8.6 6.6 8.5 99 0.0 W 9 15 5 8 1023.0 1022.9 1.0
27/05:30am 8.4 6.3 8.3 99 0.0 W 9 13 5 7 1023.0 1022.9 1.0
27/05:00am 8.6 6.2 8.5 99 0.0 W 11 19 6 10 1022.7 1022.5 1.0
27/04:30am 8.5 6.4 8.4 99 0.0 W 9 13 5 7 1022.5 1022.3 1.0
27/04:00am 8.6 6.2 8.5 99 0.0 W 11 17 6 9 1022.4 1022.2 1.0
27/03:30am 8.5 6.0 8.4 99 0.0 W 11 17 6 9 1022.4 1022.2 1.0
27/03:00am 8.6 6.2 8.5 99 0.0 W 11 17 6 9 1022.3 1022.1 1.0
27/02:30am 8.3 6.2 8.2 99 0.0 W 9 13 5 7 1022.4 1022.2 1.0
27/02:00am 8.4 6.3 8.3 99 0.0 W 9 15 5 8 1022.4 1022.2 1.0
27/01:30am 8.4 5.9 8.3 99 0.0 W 11 15 6 8 1022.4 1022.2 0.8
27/01:00am 8.6 6.2 8.5 99 0.0 W 11 15 6 8 1022.4 1022.2 0.8
27/12:30am 8.7 6.7 8.6 99 0.0 W 9 13 5 7 1022.6 1022.4 0.8
27/12:00am 8.4 5.9 8.1 98 0.1 W 11 15 6 8 1022.7 1022.5 0.8
 
Date/Time
EST
Temp
°C
App
Temp
°C
Dew
Point
Rel
Hum
%
Delta-T
°C
Wind Press
QNH
hPa
Press
MSL
hPa
Rain
since 9 am
mm
Dir
 
Spd
km/h
Gust
km/h
Spd
kts
Gust
kts
26/11:30pm 8.4 6.2 8.0 97 0.2 WNW 9 13 5 7 1022.6 1022.4 0.8
26/11:00pm 8.7 6.6 8.3 97 0.2 W 9 15 5 8 1022.6 1022.4 0.8
26/10:30pm 9.2 6.9 8.9 98 0.1 W 11 17 6 9 1022.8 1022.6 0.8
26/10:00pm 9.2 6.5 9.1 99 0.0 WSW 13 17 7 9 1022.8 1022.6 0.8
26/09:30pm 9.4 6.6 8.6 95 0.4 WSW 13 19 7 10 1022.8 1022.6 0.8
26/09:00pm 9.7 7.7 8.6 93 0.5 WSW 9 13 5 7 1022.7 1022.5 0.8
26/08:30pm 9.8 7.3 8.4 91 0.7 WSW 11 17 6 9 1022.4 1022.2 0.6
26/08:00pm 9.7 7.5 8.0 89 0.8 W 9 13 5 7 1022.3 1022.1 0.6
26/07:30pm 9.7 7.9 8.0 89 0.8 W 7 11 4 6 1022.2 1022.0 0.6
26/07:00pm 10.2 7.7 8.3 88 0.9 WSW 11 15 6 8 1022.1 1021.9 0.6
26/06:30pm 10.4 7.8 7.6 83 1.4 WSW 11 15 6 8 1022.0 1021.8 0.6
26/06:00pm 10.6 7.2 7.7 82 1.4 WSW 15 20 8 11 1021.8 1021.6 0.6
26/05:30pm 10.5 6.7 7.7 83 1.4 WSW 17 24 9 13 1021.4 1021.3 0.6
26/05:00pm 10.9 6.7 7.6 80 1.6 SW 19 30 10 16 1021.3 1021.2 0.6
26/04:30pm 10.8 7.6 8.6 86 1.1 WSW 15 20 8 11 1021.2 1021.1 0.6
26/04:00pm 10.9 7.3 8.5 85 1.2 WSW 17 24 9 13 1021.1 1021.0 0.6
26/03:30pm 11.7 7.3 7.2 74 2.2 SW 20 28 11 15 1020.9 1020.8 0.6
26/03:00pm 11.5 7.0 7.0 74 2.2 SW 20 28 11 15 1020.8 1020.7 0.6
26/02:30pm 11.4 6.5 7.1 75 2.1 SW 22 33 12 18 1020.6 1020.5 0.6
26/02:00pm 11.0 5.6 8.2 83 1.4 SW 26 35 14 19 1020.6 1020.5 0.6
26/01:30pm 12.0 5.7 7.5 74 2.2 SW 30 39 16 21 1020.3 1020.2 0.6
26/01:00pm 12.1 6.8 8.4 78 1.8 SW 26 37 14 20 1020.2 1020.1 0.6
26/12:30pm 11.9 7.4 10.0 88 1.0 SW 24 37 13 20 1020.4 1020.3 0.6
26/12:00pm 10.3 4.9 9.4 94 0.5 SW 28 43 15 23 1020.7 1020.6 0.6
26/11:30am 11.9 8.0 10.8 93 0.6 SW 22 28 12 15 1020.5 1020.4 0.2
26/11:00am 10.8 7.2 10.5 98 0.2 SW 20 30 11 16 1020.6 1020.5 0.2
26/10:30am 11.1 6.8 9.5 90 0.8 SSW 22 32 12 17 1020.5 1020.4 0.0
26/10:00am 11.1 7.9 10.0 93 0.6 SW 17 22 9 12 1020.6 1020.5 0.0
26/09:30am 9.9 6.6 9.6 98 0.2 SW 17 22 9 12 1020.6 1020.5 0.0
26/09:00am 9.1 5.7 9.0 99 0.0 SW 17 26 9 14 1020.4 1020.3 2.6
26/08:30am 8.9 5.4 8.8 99 0.0 SW 17 24 9 13 1020.1 1020.0 2.6
26/08:00am 8.7 5.9 8.6 99 0.0 SW 13 17 7 9 1019.7 1019.6 2.6
26/07:30am 8.5 5.3 8.4 99 0.0 SW 15 19 8 10 1019.2 1019.1 2.6
26/07:00am 8.4 5.5 8.3 99 0.0 SW 13 20 7 11 1018.8 1018.6 2.4
26/06:30am 8.4 5.2 8.3 99 0.0 SW 15 20 8 11 1018.7 1018.5 2.4
26/06:00am 8.4 4.8 8.3 99 0.0 SW 17 20 9 11 1018.4 1018.2 2.4
26/05:30am 8.4 5.2 8.3 99 0.0 SW 15 20 8 11 1018.1 1017.9 2.4
26/05:00am 8.4 5.2 8.3 99 0.0 SW 15 22 8 12 1017.9 1017.7 2.4
26/04:30am 8.2 5.3 8.1 99 0.0 SW 13 17 7 9 1017.7 1017.5 2.2
26/04:00am 8.4 5.5 8.3 99 0.0 SW 13 19 7 10 1017.7 1017.5 2.2
26/03:30am 8.5 5.7 8.4 99 0.0 SW 13 19 7 10 1017.5 1017.3 2.2
26/03:00am 8.6 6.2 8.5 99 0.0 SW 11 13 6 7 1017.5 1017.3 2.0
26/02:30am 8.7 6.7 8.6 99 0.0 SW 9 15 5 8 1017.4 1017.2 1.8
26/02:00am 8.9 6.5 8.8 99 0.0 SW 11 15 6 8 1017.3 1017.1 1.8
26/01:30am 8.8 6.4 8.7 99 0.0 SW 11 15 6 8 1017.2 1017.0 1.6
26/01:00am 9.0 6.3 8.9 99 0.0 SSW 13 17 7 9 1017.0 1016.9 1.6
26/12:30am 9.1 6.7 8.8 98 0.1 SSW 11 15 6 8 1016.9 1016.8 1.4
26/12:00am 9.1 5.5 8.5 96 0.3 SSW 17 22 9 12 1016.7 1016.6 1.4
 
Date/Time
EST
Temp
°C
App
Temp
°C
Dew
Point
Rel
Hum
%
Delta-T
°C
Wind Press
QNH
hPa
Press
MSL
hPa
Rain
since 9 am
mm
Dir
 
Spd
km/h
Gust
km/h
Spd
kts
Gust
kts
25/11:30pm 9.7 6.7 7.5 86 1.1 SSW 13 17 7 9 1016.6 1016.5 1.4
25/11:00pm 9.8 7.5 7.4 85 1.2 SSW 9 15 5 8 1016.5 1016.4 1.4
25/10:30pm 9.8 7.6 7.7 87 1.0 SW 9 13 5 7 1016.5 1016.4 1.4
25/10:00pm 9.9 7.0 8.0 88 0.9 SSW 13 17 7 9 1016.4 1016.3 1.4
25/09:30pm 9.9 7.1 8.7 92 0.6 SSW 13 17 7 9 1016.3 1016.2 1.4
25/09:00pm 9.9 7.3 9.4 97 0.3 SSW 13 15 7 8 1016.2 1016.1 1.4
25/08:30pm 10.0 7.0 9.4 96 0.3 SSW 15 19 8 10 1015.9 1015.8 1.4
25/08:00pm 10.2 5.8 9.0 92 0.6 S 22 28 12 15 1015.5 1015.4 1.4
25/07:30pm 10.6 6.3 9.2 91 0.7 S 22 30 12 16 1015.2 1015.0 1.4
25/07:00pm 10.8 6.2 9.6 92 0.6 S 24 32 13 17 1014.7 1014.5 1.4
25/06:30pm 10.9 5.9 9.7 92 0.6 S 26 35 14 19 1014.0 1013.8 1.4
25/06:00pm 11.1 5.5 10.2 94 0.5 S 30 39 16 21 1013.5 1013.3 1.4
25/05:30pm 11.5 6.9 11.0 97 0.3 S 26 37 14 20 1012.8 1012.6 1.4
25/05:00pm 11.6 6.3 11.3 98 0.2 S 30 43 16 23 1012.0 1011.9 1.4
25/04:30pm 11.9 8.6 11.7 99 0.1 S 20 43 11 23 1011.7 1011.6 1.4
25/04:00pm 13.1 10.1 11.8 92 0.7 S 19 24 10 13 1011.3 1011.1 0.4
25/03:30pm 13.0 10.3 11.7 92 0.7 SSE 17 20 9 11 1011.0 1010.8 0.2

Other Formats:

Comma delimited format used in spreadsheet applications
http://www.bom.gov.au/fwo/IDV60801/IDV60801.95840.axf

JavaScript Object Notation format (JSON) in row-major order
http://www.bom.gov.au/fwo/IDV60801/IDV60801.95840.json